Time;durP1;ratioP1;P1;durP2;ratioP2;P2;SDS_P1;SDS_P2;PMS_P1;PMS_P2;Temp;Humidity;BMP_temperature;BMP_pressure;BME280_temperature;BME280_humidity;BME280_pressure;Samples;Min_cycle;Max_cycle;Signal;HPM_P1;HPM_P2
2021/11/05 00:02:05;;;;;;;3.67;3.38;;;10.30;99.90;;;;;;5135568;27;20214;-61
2021/11/05 00:04:32;;;;;;;3.30;2.60;;;10.30;99.90;;;;;;5135945;27;20225;-61
2021/11/05 00:07:00;;;;;;;2.88;2.67;;;10.20;99.90;;;;;;5146362;27;20222;-62
2021/11/05 00:09:27;;;;;;;4.32;2.70;;;10.20;99.90;;;;;;5135135;27;20222;-61
2021/11/05 00:11:54;;;;;;;2.38;2.17;;;10.20;99.90;;;;;;5134291;27;20222;-61
2021/11/05 00:14:23;;;;;;;3.22;2.92;;;10.20;99.90;;;;;;5135385;27;20218;-62
2021/11/05 00:16:49;;;;;;;2.63;2.15;;;10.20;99.90;;;;;;5135133;27;20938;-61
2021/11/05 00:19:16;;;;;;;2.30;2.10;;;10.20;99.90;;;;;;5135251;27;20229;-62
2021/11/05 00:21:43;;;;;;;5.20;4.65;;;10.20;99.90;;;;;;5135193;27;20668;-62
2021/11/05 00:24:10;;;;;;;2.40;2.20;;;10.20;99.90;;;;;;5135184;27;20722;-63
2021/11/05 00:26:37;;;;;;;2.75;2.55;;;10.20;99.90;;;;;;5134942;27;20612;-63
2021/11/05 00:29:05;;;;;;;2.03;1.80;;;10.20;99.90;;;;;;5134918;27;20233;-63
2021/11/05 00:31:33;;;;;;;8.73;6.28;;;10.20;99.90;;;;;;5133679;27;20241;-63
2021/11/05 00:34:00;;;;;;;5.00;4.50;;;10.10;99.90;;;;;;5135242;27;20613;-63
2021/11/05 00:36:27;;;;;;;5.28;4.75;;;10.10;99.90;;;;;;5134568;27;20229;-63
2021/11/05 00:38:54;;;;;;;27.25;16.88;;;10.00;99.90;;;;;;5134673;27;20225;-63
2021/11/05 00:41:21;;;;;;;3.65;2.42;;;10.10;99.90;;;;;;5135166;27;20226;-63
2021/11/05 00:43:48;;;;;;;2.05;1.90;;;10.10;99.90;;;;;;5134232;27;20655;-63
2021/11/05 00:46:15;;;;;;;3.13;2.92;;;10.00;99.90;;;;;;5134931;27;20225;-63
2021/11/05 00:48:43;;;;;;;2.78;2.53;;;10.00;99.90;;;;;;5133899;27;20221;-63
2021/11/05 00:51:10;;;;;;;2.20;2.00;;;10.00;99.90;;;;;;5134924;27;20226;-63
2021/11/05 00:53:37;;;;;;;6.78;5.28;;;9.90;99.90;;;;;;5134263;27;20230;-63
2021/11/05 00:56:04;;;;;;;2.10;2.00;;;9.90;99.90;;;;;;5131855;27;20609;-63
2021/11/05 00:58:31;;;;;;;12.07;6.82;;;9.90;99.90;;;;;;5134002;27;20585;-63
2021/11/05 01:00:58;;;;;;;3.70;3.25;;;9.90;99.90;;;;;;5134637;27;20248;-63
2021/11/05 01:03:25;;;;;;;4.22;3.25;;;9.90;99.90;;;;;;5134795;27;20222;-63
2021/11/05 01:05:53;;;;;;;4.45;1.83;;;9.90;99.90;;;;;;5137765;27;20222;-64
2021/11/05 01:08:20;;;;;;;3.47;2.83;;;9.90;99.90;;;;;;5134461;27;20222;-62
2021/11/05 01:10:47;;;;;;;2.47;2.13;;;9.90;99.90;;;;;;5132233;27;20229;-63
2021/11/05 01:13:14;;;;;;;2.50;2.30;;;10.00;99.90;;;;;;5121875;27;20209;-61
2021/11/05 01:15:41;;;;;;;1.98;1.75;;;10.00;99.90;;;;;;5134035;27;20225;-63
2021/11/05 01:18:08;;;;;;;3.42;2.90;;;10.00;99.90;;;;;;5134245;27;20221;-62
2021/11/05 01:20:35;;;;;;;2.90;2.03;;;10.00;99.90;;;;;;5133784;27;20249;-62
2021/11/05 01:23:04;;;;;;;1.73;1.63;;;10.00;99.90;;;;;;5134280;27;20244;-62
2021/11/05 01:25:31;;;;;;;3.90;3.58;;;10.00;99.90;;;;;;5133844;27;20234;-63
2021/11/05 01:27:58;;;;;;;3.28;3.00;;;10.00;99.90;;;;;;5133995;27;20229;-62
2021/11/05 01:30:25;;;;;;;1.50;1.40;;;10.00;99.90;;;;;;5134080;27;20305;-62
2021/11/05 01:32:52;;;;;;;3.10;2.20;;;10.00;99.90;;;;;;5133644;27;20222;-63
2021/11/05 01:35:19;;;;;;;2.42;2.13;;;10.00;99.90;;;;;;5134037;27;20702;-62
2021/11/05 01:37:49;;;;;;;2.33;1.70;;;10.00;99.90;;;;;;5133431;27;20278;-62
2021/11/05 01:40:19;;;;;;;1.63;1.52;;;10.00;99.90;;;;;;5133887;27;20237;-62
2021/11/05 01:42:46;;;;;;;2.10;1.70;;;10.00;99.90;;;;;;5132783;27;20221;-63
2021/11/05 01:45:14;;;;;;;2.17;1.40;;;10.00;99.90;;;;;;5133817;27;20233;-62
2021/11/05 01:47:40;;;;;;;3.33;2.58;;;10.10;99.90;;;;;;5133393;27;20242;-62
2021/11/05 01:50:09;;;;;;;2.20;2.00;;;10.00;99.90;;;;;;5129769;27;20229;-62
2021/11/05 01:52:38;;;;;;;1.75;1.38;;;10.00;99.90;;;;;;5133403;27;20391;-62
2021/11/05 01:55:06;;;;;;;1.90;1.80;;;10.00;99.90;;;;;;5127166;27;20223;-62
2021/11/05 01:57:35;;;;;;;3.63;3.33;;;10.00;99.90;;;;;;5091709;28;20231;-62
2021/11/05 02:00:02;;;;;;;4.05;3.10;;;10.00;99.90;;;;;;5081566;28;20315;-62
2021/11/05 02:02:29;;;;;;;2.10;1.90;;;10.00;99.90;;;;;;5088514;28;20234;-62
2021/11/05 02:04:56;;;;;;;3.50;3.20;;;10.00;99.90;;;;;;5095668;28;20564;-63
2021/11/05 02:07:25;;;;;;;2.50;2.30;;;10.00;99.90;;;;;;5092622;28;20234;-62
2021/11/05 02:09:52;;;;;;;3.83;1.80;;;10.00;99.90;;;;;;5092032;28;20250;-62
2021/11/05 02:12:20;;;;;;;4.00;3.63;;;10.10;99.90;;;;;;5089201;28;20599;-63
2021/11/05 02:14:48;;;;;;;6.75;4.63;;;10.10;99.90;;;;;;5092126;28;20219;-63
2021/11/05 02:17:15;;;;;;;1.80;1.70;;;10.10;99.90;;;;;;5090600;28;20689;-63
2021/11/05 02:19:42;;;;;;;2.75;2.45;;;10.10;99.90;;;;;;5091024;28;20580;-63
2021/11/05 02:22:11;;;;;;;3.15;2.70;;;10.10;99.90;;;;;;5091800;28;20221;-63
2021/11/05 02:24:38;;;;;;;3.92;3.63;;;10.20;99.90;;;;;;5091915;28;20577;-63
2021/11/05 02:27:06;;;;;;;2.65;2.45;;;10.10;99.90;;;;;;5092299;28;20237;-63
2021/11/05 02:29:34;;;;;;;8.45;6.00;;;10.20;99.90;;;;;;5092289;28;20235;-63
2021/11/05 02:32:01;;;;;;;2.83;2.55;;;10.20;99.90;;;;;;5091866;28;21001;-63
2021/11/05 02:34:29;;;;;;;3.47;2.78;;;10.30;99.90;;;;;;5092323;28;20308;-63
2021/11/05 02:36:56;;;;;;;2.65;1.70;;;10.40;99.90;;;;;;5087441;28;20250;-63
2021/11/05 02:39:24;;;;;;;2.88;2.60;;;10.40;99.90;;;;;;5091346;28;20250;-63
2021/11/05 02:41:53;;;;;;;3.70;3.40;;;10.50;99.90;;;;;;5091893;28;20215;-63
2021/11/05 02:44:21;;;;;;;4.88;4.38;;;10.50;99.90;;;;;;5084676;28;20219;-63
2021/11/05 02:46:49;;;;;;;3.35;2.42;;;10.60;99.90;;;;;;5091848;28;20564;-63
2021/11/05 02:49:16;;;;;;;3.13;2.85;;;10.60;99.90;;;;;;5091712;28;20238;-63
2021/11/05 02:51:45;;;;;;;2.55;2.35;;;10.70;99.90;;;;;;5091948;28;20234;-62
2021/11/05 02:54:13;;;;;;;2.85;2.55;;;10.70;99.90;;;;;;5091519;28;20230;-63
2021/11/05 02:56:41;;;;;;;4.57;4.18;;;10.70;99.90;;;;;;5113234;27;20226;-63
2021/11/05 02:59:08;;;;;;;3.20;2.90;;;10.70;99.90;;;;;;5133189;27;20240;-63
2021/11/05 03:01:38;;;;;;;8.35;6.90;;;10.80;99.90;;;;;;5132982;27;20235;-63
2021/11/05 03:04:08;;;;;;;3.20;2.90;;;10.90;99.90;;;;;;5132774;27;20229;-63
2021/11/05 03:06:36;;;;;;;2.80;2.60;;;10.90;99.90;;;;;;5133147;27;20229;-63
2021/11/05 03:09:08;;;;;;;6.32;4.47;;;11.00;99.90;;;;;;5135849;27;20234;-63
2021/11/05 03:11:35;;;;;;;6.40;4.95;;;11.00;99.90;;;;;;5133414;27;20263;-63
2021/11/05 03:14:07;;;;;;;9.93;8.10;;;10.90;99.90;;;;;;5136749;27;20233;-63
2021/11/05 03:16:35;;;;;;;3.70;3.40;;;11.00;99.90;;;;;;5132316;27;20218;-63
2021/11/05 03:19:03;;;;;;;5.20;4.07;;;11.00;99.90;;;;;;5136072;27;20528;-63
2021/11/05 03:21:30;;;;;;;3.55;3.25;;;11.00;99.90;;;;;;5136763;27;20229;-63
2021/11/05 03:23:58;;;;;;;4.28;3.92;;;11.10;99.90;;;;;;5136357;27;20667;-63
2021/11/05 03:26:25;;;;;;;5.03;4.63;;;11.10;99.90;;;;;;5136609;27;20226;-63
2021/11/05 03:28:52;;;;;;;5.07;4.57;;;11.10;99.90;;;;;;5136116;27;20294;-64
2021/11/05 03:31:21;;;;;;;10.85;8.90;;;11.10;99.90;;;;;;5128569;27;20226;-64
2021/11/05 03:33:48;;;;;;;7.68;6.93;;;11.10;99.90;;;;;;5136024;27;20233;-63
2021/11/05 03:36:15;;;;;;;8.60;7.85;;;11.10;99.90;;;;;;5133442;27;20759;-63
2021/11/05 03:38:42;;;;;;;6.15;5.55;;;11.10;99.90;;;;;;5130237;27;20307;-63
2021/11/05 03:41:09;;;;;;;5.65;5.05;;;11.10;99.90;;;;;;5140118;27;20221;-63
2021/11/05 03:43:37;;;;;;;6.32;5.70;;;11.10;99.90;;;;;;5142421;27;20218;-63
2021/11/05 03:46:08;;;;;;;6.88;4.43;;;11.10;99.90;;;;;;5135852;27;20232;-63
2021/11/05 03:48:38;;;;;;;5.43;4.93;;;11.10;99.90;;;;;;5133242;27;20215;-63
2021/11/05 03:51:05;;;;;;;4.60;4.20;;;11.10;99.90;;;;;;5135870;27;20226;-63
2021/11/05 03:53:33;;;;;;;4.00;3.60;;;11.10;99.90;;;;;;5135974;27;20226;-63
2021/11/05 03:56:00;;;;;;;5.63;4.90;;;11.00;99.90;;;;;;5133788;27;20237;-63
2021/11/05 03:58:27;;;;;;;10.27;9.27;;;11.10;99.90;;;;;;5136058;27;20553;-63
2021/11/05 04:00:54;;;;;;;7.10;6.50;;;11.10;99.90;;;;;;5135326;27;20234;-63
2021/11/05 04:03:22;;;;;;;5.65;5.10;;;11.20;99.90;;;;;;5135846;27;20226;-63
2021/11/05 04:05:50;;;;;;;4.57;4.28;;;11.20;99.90;;;;;;5135488;27;20225;-64
2021/11/05 04:08:17;;;;;;;4.70;4.30;;;11.20;99.90;;;;;;5135648;27;20232;-63
2021/11/05 04:10:46;;;;;;;4.03;3.70;;;11.20;99.90;;;;;;5133463;27;20613;-64
2021/11/05 04:13:13;;;;;;;4.80;4.40;;;11.20;99.90;;;;;;5133994;27;20221;-63
2021/11/05 04:15:40;;;;;;;4.78;4.25;;;11.20;99.90;;;;;;5134694;27;20229;-63
2021/11/05 04:18:07;;;;;;;5.15;4.75;;;11.20;99.90;;;;;;5132107;27;20229;-63
2021/11/05 04:20:35;;;;;;;5.80;5.30;;;11.30;99.90;;;;;;5134458;27;20233;-64
2021/11/05 04:23:06;;;;;;;7.10;6.40;;;11.30;99.90;;;;;;5134465;27;20728;-63
2021/11/05 04:25:34;;;;;;;7.28;6.57;;;11.30;99.90;;;;;;5135496;27;20221;-63
2021/11/05 04:28:01;;;;;;;7.30;6.68;;;11.30;99.90;;;;;;5135135;27;20716;-63
2021/11/05 04:30:28;;;;;;;5.70;5.30;;;11.30;99.90;;;;;;5135317;27;20234;-63
2021/11/05 04:32:55;;;;;;;7.45;6.85;;;11.30;99.90;;;;;;5135032;27;20222;-63
2021/11/05 04:35:22;;;;;;;5.60;5.15;;;11.30;99.90;;;;;;5135467;27;20226;-64
2021/11/05 04:37:49;;;;;;;7.70;6.72;;;11.20;99.90;;;;;;5127833;27;20210;-64
2021/11/05 04:40:17;;;;;;;7.05;6.45;;;11.20;99.90;;;;;;5114167;27;20811;-63
2021/11/05 04:42:44;;;;;;;9.13;7.90;;;11.20;99.90;;;;;;5113724;27;20218;-63
2021/11/05 04:45:11;;;;;;;7.45;6.75;;;11.20;99.90;;;;;;5114416;27;20560;-63
2021/11/05 04:47:38;;;;;;;8.27;7.47;;;11.30;99.90;;;;;;5114805;27;20223;-63
2021/11/05 04:50:07;;;;;;;8.75;7.88;;;11.30;99.90;;;;;;5117652;27;20225;-63
2021/11/05 04:52:34;;;;;;;7.68;6.97;;;11.30;99.90;;;;;;5135312;27;20290;-63
2021/11/05 04:55:01;;;;;;;8.65;7.95;;;11.30;99.90;;;;;;5134321;27;20237;-63
2021/11/05 04:57:29;;;;;;;8.07;7.38;;;11.30;99.90;;;;;;5134659;27;20223;-63
2021/11/05 04:59:56;;;;;;;8.82;8.02;;;11.30;99.90;;;;;;5132597;27;20711;-63
2021/11/05 05:02:23;;;;;;;8.93;8.10;;;11.40;99.90;;;;;;5134390;27;20222;-63
2021/11/05 05:04:50;;;;;;;9.55;8.68;;;11.30;99.90;;;;;;5135023;27;20218;-63
2021/11/05 05:07:17;;;;;;;12.52;11.23;;;11.30;99.90;;;;;;5134445;27;20224;-63
2021/11/05 05:09:44;;;;;;;11.82;10.73;;;11.30;99.90;;;;;;5134765;27;20233;-63
2021/11/05 05:12:11;;;;;;;10.50;9.60;;;11.20;99.90;;;;;;5134468;27;20218;-63
2021/11/05 05:14:40;;;;;;;10.80;9.80;;;11.30;99.90;;;;;;5134949;27;20736;-63
2021/11/05 05:17:07;;;;;;;12.15;10.20;;;11.30;99.90;;;;;;5134290;27;20245;-63
2021/11/05 05:19:35;;;;;;;12.18;11.07;;;11.30;99.90;;;;;;5134590;27;20230;-63
2021/11/05 05:22:02;;;;;;;12.43;11.15;;;11.30;99.90;;;;;;5134165;27;20300;-63
2021/11/05 05:24:29;;;;;;;13.45;12.05;;;11.30;99.90;;;;;;5134601;27;20234;-63
2021/11/05 05:26:57;;;;;;;12.57;11.48;;;11.30;99.90;;;;;;5134194;27;20226;-63
2021/11/05 05:29:24;;;;;;;13.43;12.02;;;11.30;99.90;;;;;;5134513;27;20699;-63
2021/11/05 05:31:52;;;;;;;14.15;12.45;;;11.30;99.90;;;;;;5134573;27;20225;-63
2021/11/05 05:34:19;;;;;;;13.60;12.27;;;11.30;99.90;;;;;;5134121;27;20594;-64
2021/11/05 05:36:46;;;;;;;16.20;14.60;;;11.30;99.90;;;;;;5134629;27;20734;-64
2021/11/05 05:39:14;;;;;;;20.67;15.93;;;11.30;99.90;;;;;;5133857;27;20226;-63
2021/11/05 05:41:41;;;;;;;14.18;12.77;;;11.30;99.90;;;;;;5134346;27;20683;-63
2021/11/05 05:44:08;;;;;;;14.80;13.15;;;11.30;99.90;;;;;;5133927;27;20293;-64
2021/11/05 05:46:35;;;;;;;14.50;12.85;;;11.30;99.90;;;;;;5134391;27;20222;-63
2021/11/05 05:49:03;;;;;;;13.52;12.23;;;11.30;99.90;;;;;;5133623;27;20226;-63
2021/11/05 05:51:33;;;;;;;18.75;16.85;;;11.30;99.90;;;;;;5134306;27;20311;-63
2021/11/05 05:54:00;;;;;;;15.15;13.70;;;11.30;99.90;;;;;;5133514;27;20217;-64
2021/11/05 05:56:27;;;;;;;14.50;12.77;;;11.40;99.90;;;;;;5133941;27;20234;-63
2021/11/05 05:58:54;;;;;;;15.07;13.57;;;11.40;99.90;;;;;;5133952;27;20229;-63
2021/11/05 06:01:22;;;;;;;15.65;14.13;;;11.40;99.90;;;;;;5133657;27;20217;-63
2021/11/05 06:03:49;;;;;;;14.23;12.93;;;11.40;99.90;;;;;;5133956;27;20233;-62
2021/11/05 06:06:18;;;;;;;13.65;12.35;;;11.40;99.90;;;;;;5133576;27;20730;-62
2021/11/05 06:08:45;;;;;;;15.82;14.23;;;11.40;99.90;;;;;;5133703;27;20229;-63
2021/11/05 06:11:11;;;;;;;13.30;11.90;;;11.40;99.90;;;;;;5133427;27;20606;-62
2021/11/05 06:13:39;;;;;;;14.45;12.75;;;11.40;99.90;;;;;;5134215;27;20217;-62
2021/11/05 06:16:08;;;;;;;15.50;13.90;;;11.40;99.90;;;;;;5133443;27;20573;-63
2021/11/05 06:18:34;;;;;;;16.30;14.65;;;11.40;99.90;;;;;;5133709;27;20315;-63
2021/11/05 06:21:01;;;;;;;17.17;15.48;;;11.40;99.90;;;;;;5133352;27;20221;-63
2021/11/05 06:23:30;;;;;;;19.88;14.70;;;11.40;99.90;;;;;;5133586;27;20213;-63
2021/11/05 06:25:57;;;;;;;18.88;14.35;;;11.40;99.90;;;;;;5133766;27;20213;-63
2021/11/05 06:28:25;;;;;;;16.05;14.43;;;11.40;99.90;;;;;;5133531;27;20218;-63
2021/11/05 06:30:52;;;;;;;16.05;14.45;;;11.40;99.90;;;;;;5133587;27;20792;-63
2021/11/05 06:33:19;;;;;;;17.48;15.60;;;11.40;99.90;;;;;;5133248;27;20229;-64
2021/11/05 06:35:46;;;;;;;16.02;14.07;;;11.40;99.90;;;;;;5133640;27;20218;-63
2021/11/05 06:38:17;;;;;;;16.15;14.35;;;11.40;99.90;;;;;;5133033;27;20226;-62
2021/11/05 06:40:49;;;;;;;17.13;14.50;;;11.40;99.90;;;;;;5133325;27;20218;-62
2021/11/05 06:43:21;;;;;;;16.77;15.15;;;11.50;99.90;;;;;;5135561;27;20230;-62
2021/11/05 06:45:50;;;;;;;16.70;14.57;;;11.50;99.90;;;;;;5137575;27;20214;-62
2021/11/05 06:48:17;;;;;;;17.30;15.48;;;11.50;99.90;;;;;;5137264;27;20218;-62
2021/11/05 06:50:44;;;;;;;16.08;14.40;;;11.50;99.90;;;;;;5137674;27;20477;-62
2021/11/05 06:53:12;;;;;;;15.05;13.65;;;11.50;99.90;;;;;;5137122;27;20568;-63
2021/11/05 06:55:39;;;;;;;15.80;14.20;;;11.50;99.90;;;;;;5137365;27;20656;-62
2021/11/05 06:58:08;;;;;;;16.65;14.95;;;11.50;99.90;;;;;;5137150;27;20229;-63
2021/11/05 07:00:35;;;;;;;14.90;13.40;;;11.50;99.90;;;;;;5137402;27;20304;-63
2021/11/05 07:03:03;;;;;;;14.75;13.23;;;11.50;99.90;;;;;;5137187;27;20222;-62
2021/11/05 07:05:30;;;;;;;15.45;13.43;;;11.60;99.90;;;;;;5137471;27;20218;-63
2021/11/05 07:07:57;;;;;;;15.35;13.75;;;11.70;99.90;;;;;;5137157;27;20290;-63
2021/11/05 07:10:24;;;;;;;15.80;13.65;;;11.60;99.90;;;;;;5136730;27;20230;-62
2021/11/05 07:12:51;;;;;;;17.48;13.98;;;11.70;99.90;;;;;;5137408;27;20544;-63
2021/11/05 07:15:20;;;;;;;18.88;15.15;;;11.70;99.90;;;;;;5136848;27;20635;-63
2021/11/05 07:17:47;;;;;;;17.50;15.55;;;11.60;99.90;;;;;;5137095;27;20567;-63
2021/11/05 07:20:14;;;;;;;15.25;13.65;;;11.60;99.90;;;;;;5136559;27;20233;-63
2021/11/05 07:22:42;;;;;;;15.45;13.23;;;11.60;99.90;;;;;;5137074;27;20533;-63
2021/11/05 07:25:10;;;;;;;15.07;12.98;;;11.60;99.90;;;;;;5136354;27;20218;-63
2021/11/05 07:27:38;;;;;;;18.25;14.45;;;11.60;99.90;;;;;;5137109;27;20233;-63
2021/11/05 07:30:06;;;;;;;18.08;14.40;;;11.70;99.90;;;;;;5136403;27;20259;-63
2021/11/05 07:32:34;;;;;;;15.77;13.43;;;11.60;99.90;;;;;;5136676;27;20220;-63
2021/11/05 07:35:01;;;;;;;14.95;13.35;;;11.60;99.90;;;;;;5136877;27;20225;-63
2021/11/05 07:37:28;;;;;;;13.23;11.82;;;11.70;99.90;;;;;;5136407;27;20230;-63
2021/11/05 07:39:55;;;;;;;15.30;13.45;;;11.70;99.90;;;;;;5136681;27;20671;-63
2021/11/05 07:42:22;;;;;;;17.45;12.93;;;11.70;99.90;;;;;;5136233;27;20692;-63
2021/11/05 07:44:49;;;;;;;16.75;12.57;;;11.70;99.90;;;;;;5136583;27;20218;-63
2021/11/05 07:47:21;;;;;;;14.98;13.13;;;11.70;99.90;;;;;;5136153;27;20226;-63
2021/11/05 07:49:51;;;;;;;16.00;12.98;;;11.70;99.90;;;;;;5136495;27;20267;-63
2021/11/05 07:52:18;;;;;;;15.20;13.00;;;11.70;99.90;;;;;;5136070;27;20660;-63
2021/11/05 07:54:46;;;;;;;15.68;11.65;;;11.70;99.90;;;;;;5135091;27;20571;-63
2021/11/05 07:57:13;;;;;;;13.40;12.00;;;11.80;99.90;;;;;;5135770;27;20222;-63
2021/11/05 07:59:40;;;;;;;12.35;11.15;;;11.70;99.90;;;;;;5136219;27;20226;-63
2021/11/05 08:02:08;;;;;;;17.42;12.55;;;11.70;99.90;;;;;;5135970;27;20695;-64
2021/11/05 08:04:36;;;;;;;16.27;13.85;;;11.70;99.90;;;;;;5136320;27;20218;-64
2021/11/05 08:07:04;;;;;;;14.45;12.52;;;11.60;99.90;;;;;;5136098;27;20214;-63
2021/11/05 08:09:31;;;;;;;14.30;12.77;;;11.60;99.90;;;;;;5135763;27;20225;-64
2021/11/05 08:11:58;;;;;;;15.38;13.35;;;11.60;99.90;;;;;;5136177;27;20218;-63
2021/11/05 08:14:29;;;;;;;16.20;13.43;;;11.60;99.90;;;;;;5135632;27;20567;-64
2021/11/05 08:16:56;;;;;;;19.55;16.88;;;11.70;99.90;;;;;;5136060;27;20233;-63
2021/11/05 08:19:23;;;;;;;15.35;12.35;;;11.70;99.90;;;;;;5135393;27;20286;-64
2021/11/05 08:21:50;;;;;;;17.95;16.02;;;11.70;99.90;;;;;;5135889;27;20218;-64
2021/11/05 08:24:18;;;;;;;17.45;15.32;;;11.70;99.90;;;;;;5135485;27;20249;-64
2021/11/05 08:26:45;;;;;;;16.25;13.32;;;11.70;99.90;;;;;;5135742;27;20221;-63
2021/11/05 08:29:12;;;;;;;16.58;14.00;;;11.70;99.90;;;;;;5135167;27;20218;-62
2021/11/05 08:31:39;;;;;;;13.70;12.18;;;11.70;99.90;;;;;;5135735;27;20233;-63
2021/11/05 08:34:07;;;;;;;14.70;12.90;;;11.70;99.90;;;;;;5135717;27;20225;-63
2021/11/05 08:36:34;;;;;;;16.77;11.20;;;11.80;99.90;;;;;;5135463;27;20973;-63
2021/11/05 08:39:01;;;;;;;16.63;13.00;;;11.80;99.90;;;;;;5135356;27;20226;-63
2021/11/05 08:41:29;;;;;;;13.50;11.43;;;11.80;99.90;;;;;;5135080;27;20296;-63
2021/11/05 08:43:57;;;;;;;14.57;12.60;;;11.90;99.90;;;;;;5135406;27;20226;-63
2021/11/05 08:46:25;;;;;;;16.25;11.23;;;11.90;99.90;;;;;;5135197;27;20214;-63
2021/11/05 08:48:54;;;;;;;14.00;12.60;;;11.90;99.90;;;;;;5135503;27;20552;-63
2021/11/05 08:51:22;;;;;;;12.23;11.10;;;11.90;99.90;;;;;;5134896;27;20230;-64
2021/11/05 08:53:49;;;;;;;11.50;10.02;;;11.90;99.90;;;;;;5135270;27;20226;-63
2021/11/05 08:56:17;;;;;;;12.13;10.80;;;12.00;99.90;;;;;;5134612;27;20703;-62
2021/11/05 08:58:47;;;;;;;11.50;9.90;;;11.90;99.90;;;;;;5135052;27;20229;-62
2021/11/05 09:01:15;;;;;;;11.73;10.52;;;12.00;99.90;;;;;;5134765;27;20601;-61
2021/11/05 09:03:42;;;;;;;12.88;11.57;;;12.00;99.90;;;;;;5135057;27;20217;-63
2021/11/05 09:06:10;;;;;;;10.13;9.13;;;12.00;99.90;;;;;;5134768;27;20579;-64
2021/11/05 09:08:38;;;;;;;12.07;10.70;;;12.00;99.90;;;;;;5134597;27;20253;-63
2021/11/05 09:11:07;;;;;;;14.05;11.27;;;12.00;99.90;;;;;;5134960;27;20222;-63
2021/11/05 09:13:35;;;;;;;12.35;10.77;;;12.00;99.90;;;;;;5134484;27;20229;-63
2021/11/05 09:16:04;;;;;;;10.40;9.40;;;12.00;99.90;;;;;;5134799;27;20221;-64
2021/11/05 09:18:31;;;;;;;11.52;10.05;;;12.10;99.90;;;;;;5134234;27;20230;-63
2021/11/05 09:21:00;;;;;;;10.00;9.10;;;12.00;99.90;;;;;;5134640;27;20233;-63
2021/11/05 09:23:27;;;;;;;16.30;14.50;;;12.00;99.90;;;;;;5134205;27;20216;-63
2021/11/05 09:25:55;;;;;;;13.52;12.13;;;12.00;99.90;;;;;;5134687;27;20214;-63
2021/11/05 09:28:22;;;;;;;12.02;9.50;;;12.00;99.90;;;;;;5134120;27;20680;-64
2021/11/05 09:30:51;;;;;;;12.90;9.43;;;12.10;99.90;;;;;;5134770;27;20222;-62
2021/11/05 09:33:20;;;;;;;13.63;11.35;;;12.10;99.90;;;;;;5134016;27;20218;-63
2021/11/05 09:35:47;;;;;;;15.73;13.45;;;12.00;99.90;;;;;;5134581;27;20675;-63
2021/11/05 09:38:15;;;;;;;15.25;13.50;;;12.10;99.90;;;;;;5134524;27;20287;-63
2021/11/05 09:40:44;;;;;;;11.27;9.82;;;12.10;99.90;;;;;;5133904;27;20313;-63
2021/11/05 09:43:11;;;;;;;9.25;8.32;;;12.20;99.90;;;;;;5134278;27;20672;-63
2021/11/05 09:45:38;;;;;;;9.75;8.48;;;12.20;99.90;;;;;;5134028;27;20233;-63
2021/11/05 09:48:05;;;;;;;8.07;6.93;;;12.10;99.90;;;;;;5134279;27;20568;-63
2021/11/05 09:50:34;;;;;;;11.50;8.50;;;12.20;99.90;;;;;;5133665;27;20695;-63
2021/11/05 09:53:05;;;;;;;11.90;9.20;;;12.20;99.90;;;;;;5134244;27;20232;-62
2021/11/05 09:55:39;;;;;;;7.65;6.95;;;12.20;99.90;;;;;;5133391;27;20313;-62
2021/11/05 09:58:07;;;;;;;9.30;7.38;;;12.30;99.90;;;;;;5133973;27;20293;-62
2021/11/05 10:00:34;;;;;;;12.45;9.40;;;12.30;99.90;;;;;;5133689;27;20571;-63
2021/11/05 10:03:01;;;;;;;9.82;8.32;;;12.30;99.90;;;;;;5134018;27;20213;-62
2021/11/05 10:05:29;;;;;;;9.38;8.00;;;12.30;99.90;;;;;;5133551;27;20242;-63
2021/11/05 10:07:59;;;;;;;11.68;9.70;;;12.30;99.90;;;;;;5134040;27;20217;-63
2021/11/05 10:10:29;;;;;;;8.00;6.95;;;12.40;99.90;;;;;;5133448;27;20233;-63
2021/11/05 10:13:01;;;;;;;9.43;8.45;;;12.30;99.90;;;;;;5133723;27;20232;-62
2021/11/05 10:15:36;;;;;;;8.00;7.20;;;12.40;99.90;;;;;;5133401;27;20221;-63
2021/11/05 10:18:09;;;;;;;10.55;9.45;;;12.40;99.90;;;;;;5133238;27;20217;-64
2021/11/05 10:20:36;;;;;;;7.00;6.38;;;12.40;99.90;;;;;;5133260;27;20234;-64
2021/11/05 10:23:05;;;;;;;11.43;8.75;;;12.40;99.90;;;;;;5133623;27;20257;-64
2021/11/05 10:25:36;;;;;;;8.10;7.22;;;12.40;99.90;;;;;;5133336;27;20253;-64
2021/11/05 10:28:10;;;;;;;8.65;7.25;;;12.50;99.90;;;;;;5133666;27;20221;-63
2021/11/05 10:30:49;;;;;;;9.10;7.07;;;12.50;99.90;;;;;;5133062;27;20722;-63
2021/11/05 10:33:18;;;;;;;7.07;6.38;;;12.50;99.90;;;;;;5133651;27;20225;-64
2021/11/05 10:35:47;;;;;;;9.18;6.43;;;12.40;99.90;;;;;;5133332;27;20655;-64
2021/11/05 10:38:16;;;;;;;8.38;7.57;;;12.40;99.90;;;;;;5133708;27;20277;-64
2021/11/05 10:40:45;;;;;;;5.63;5.13;;;12.40;99.90;;;;;;5132986;27;20229;-64
2021/11/05 10:43:14;;;;;;;8.55;6.40;;;12.40;99.90;;;;;;5133616;27;20217;-64
2021/11/05 10:45:43;;;;;;;7.50;5.90;;;12.40;99.90;;;;;;5133104;27;20226;-63
2021/11/05 10:48:15;;;;;;;7.82;6.20;;;12.40;99.90;;;;;;5133430;27;20229;-63
2021/11/05 10:50:50;;;;;;;9.98;5.38;;;12.50;99.90;;;;;;5133052;27;20226;-63
2021/11/05 10:53:22;;;;;;;5.75;4.65;;;12.50;99.90;;;;;;5125723;27;20226;-63
2021/11/05 10:55:51;;;;;;;5.93;5.43;;;12.60;99.90;;;;;;5112403;27;20248;-63
2021/11/05 10:58:21;;;;;;;8.15;5.40;;;12.60;99.90;;;;;;5112740;27;20268;-63
2021/11/05 11:00:50;;;;;;;9.15;7.85;;;12.60;99.90;;;;;;5112352;27;20222;-63
2021/11/05 11:03:20;;;;;;;9.23;6.95;;;12.60;99.90;;;;;;5112981;27;20234;-63
2021/11/05 11:05:48;;;;;;;5.80;5.20;;;12.60;99.90;;;;;;5112444;27;20226;-63
2021/11/05 11:08:21;;;;;;;7.63;6.88;;;12.70;99.90;;;;;;5112547;27;20257;-63
2021/11/05 11:10:50;;;;;;;8.52;5.03;;;12.70;99.90;;;;;;5112311;27;20226;-63
2021/11/05 11:13:35;;;;;;;6.10;5.50;;;12.70;99.90;;;;;;5112718;27;20246;-63
2021/11/05 11:16:04;;;;;;;5.15;4.72;;;12.70;99.90;;;;;;5112872;27;20226;-63
2021/11/05 11:18:31;;;;;;;6.78;5.70;;;12.70;99.90;;;;;;5112549;27;20226;-63
2021/11/05 11:20:59;;;;;;;6.40;5.57;;;12.70;99.90;;;;;;5112619;27;20672;-62
2021/11/05 11:23:27;;;;;;;6.65;5.93;;;12.70;99.90;;;;;;5112139;27;20579;-63
2021/11/05 11:25:54;;;;;;;6.75;5.60;;;12.70;99.90;;;;;;5112708;27;20230;-62
2021/11/05 11:28:21;;;;;;;6.50;5.90;;;12.80;99.90;;;;;;5112975;27;20218;-63
2021/11/05 11:30:49;;;;;;;10.45;6.28;;;12.80;99.90;;;;;;5116079;27;20237;-63
2021/11/05 11:33:16;;;;;;;7.25;4.78;;;12.80;99.90;;;;;;5115831;27;20572;-62
2021/11/05 11:35:46;;;;;;;6.10;5.50;;;12.90;99.90;;;;;;5116310;27;20218;-63
2021/11/05 11:38:20;;;;;;;6.20;5.05;;;12.90;99.90;;;;;;5115680;27;20223;-63
2021/11/05 11:40:51;;;;;;;5.03;4.38;;;12.90;99.90;;;;;;5115858;27;20683;-63
2021/11/05 11:43:21;;;;;;;6.25;5.63;;;13.00;99.90;;;;;;5115848;27;20576;-62
2021/11/05 11:45:50;;;;;;;7.15;5.53;;;13.00;99.90;;;;;;5115985;27;20218;-63
2021/11/05 11:48:42;;;;;;;7.80;5.55;;;12.90;99.90;;;;;;5114548;27;20675;-62
2021/11/05 11:51:28;;;;;;;7.78;5.78;;;12.90;99.90;;;;;;5128750;27;21155;-62
2021/11/05 11:53:59;;;;;;;6.50;5.90;;;12.90;99.90;;;;;;5134090;27;20218;-62
2021/11/05 11:56:36;;;;;;;7.57;6.57;;;12.90;99.90;;;;;;5135334;27;20305;-62
2021/11/05 11:59:06;;;;;;;7.10;6.40;;;12.90;99.90;;;;;;5136331;27;20233;-63
2021/11/05 12:01:37;;;;;;;7.88;5.95;;;12.90;99.90;;;;;;5135709;27;20236;-62
2021/11/05 12:04:06;;;;;;;7.45;6.75;;;12.90;99.90;;;;;;5135944;27;20301;-62
2021/11/05 12:07:07;;;;;;;8.70;5.95;;;12.90;99.90;;;;;;5135544;27;20217;-62
2021/11/05 12:09:36;;;;;;;6.90;6.22;;;12.90;99.90;;;;;;5135343;27;20225;-62
2021/11/05 12:12:33;;;;;;;9.95;6.03;;;13.00;99.90;;;;;;5136214;27;20217;-62
2021/11/05 12:15:16;;;;;;;6.43;5.57;;;13.00;99.90;;;;;;5124736;27;20586;-62
2021/11/05 12:18:06;;;;;;;6.80;5.22;;;13.10;99.90;;;;;;5135771;27;20221;-62
2021/11/05 12:20:39;;;;;;;8.38;6.70;;;13.10;99.90;;;;;;5135458;27;20234;-62
2021/11/05 12:23:20;;;;;;;7.38;6.45;;;13.20;99.90;;;;;;5135529;27;20221;-62
2021/11/05 12:25:50;;;;;;;7.35;6.45;;;13.20;99.90;;;;;;5135234;27;20218;-63
2021/11/05 12:28:20;;;;;;;6.30;5.45;;;13.30;99.90;;;;;;5135784;27;20226;-62
2021/11/05 12:30:50;;;;;;;7.68;5.60;;;13.30;99.90;;;;;;5135141;27;20560;-63
2021/11/05 12:33:29;;;;;;;7.90;7.10;;;13.30;99.90;;;;;;5135628;27;20225;-62
2021/11/05 12:36:00;;;;;;;7.50;6.80;;;13.40;99.90;;;;;;5122375;27;20241;-62
2021/11/05 12:38:28;;;;;;;6.93;6.22;;;13.40;99.90;;;;;;5135235;27;20226;-63
2021/11/05 12:41:02;;;;;;;6.93;6.20;;;13.50;99.90;;;;;;5134523;27;20234;-62
2021/11/05 12:43:42;;;;;;;7.88;6.78;;;13.40;99.90;;;;;;5135401;27;20660;-62
2021/11/05 12:46:19;;;;;;;7.20;6.47;;;13.40;99.90;;;;;;5135691;27;20245;-62
2021/11/05 12:48:58;;;;;;;5.78;5.25;;;13.40;99.90;;;;;;5125705;27;20938;-63